sensor_id;sensor_type;location;lat;lon;timestamp;temperature;humidity
40932;DHT22;36257;46.052;12.540;2023-10-13T01:35:09;18.10;99.90
40932;DHT22;36257;46.052;12.540;2023-10-13T01:53:07;18.10;99.90
40932;DHT22;36257;46.052;12.540;2023-10-13T01:55:40;18.10;99.90
40932;DHT22;36257;46.052;12.540;2023-10-13T01:58:16;18.00;99.90
40932;DHT22;36257;46.052;12.540;2023-10-13T02:00:46;18.00;99.90
40932;DHT22;36257;46.052;12.540;2023-10-13T02:03:13;18.10;99.90
40932;DHT22;36257;46.052;12.540;2023-10-13T02:05:43;18.00;99.90
40932;DHT22;36257;46.052;12.540;2023-10-13T02:08:23;18.00;99.90
40932;DHT22;36257;46.052;12.540;2023-10-13T02:10:51;18.00;99.90
40932;DHT22;36257;46.052;12.540;2023-10-13T02:13:17;18.00;99.90
40932;DHT22;36257;46.052;12.540;2023-10-13T02:15:47;18.00;99.90
40932;DHT22;36257;46.052;12.540;2023-10-13T02:18:19;18.00;99.90
40932;DHT22;36257;46.052;12.540;2023-10-13T02:21:07;18.00;99.90
40932;DHT22;36257;46.052;12.540;2023-10-13T02:23:42;18.00;99.90
40932;DHT22;36257;46.052;12.540;2023-10-13T02:26:14;18.10;99.90
40932;DHT22;36257;46.052;12.540;2023-10-13T02:28:42;18.10;99.90
40932;DHT22;36257;46.052;12.540;2023-10-13T02:31:09;18.20;99.90
40932;DHT22;36257;46.052;12.540;2023-10-13T02:33:36;18.10;99.90
40932;DHT22;36257;46.052;12.540;2023-10-13T02:36:10;18.10;99.90
40932;DHT22;36257;46.052;12.540;2023-10-13T02:38:37;18.10;99.90
40932;DHT22;36257;46.052;12.540;2023-10-13T02:41:17;18.10;99.90
40932;DHT22;36257;46.052;12.540;2023-10-13T02:43:54;18.10;99.90
40932;DHT22;36257;46.052;12.540;2023-10-13T02:46:20;18.10;99.90
40932;DHT22;36257;46.052;12.540;2023-10-13T02:48:50;18.10;99.90
40932;DHT22;36257;46.052;12.540;2023-10-13T02:51:19;18.10;99.90
40932;DHT22;36257;46.052;12.540;2023-10-13T02:54:01;18.10;99.90
40932;DHT22;36257;46.052;12.540;2023-10-13T02:56:35;18.20;99.90
40932;DHT22;36257;46.052;12.540;2023-10-13T02:59:02;18.10;99.90
40932;DHT22;36257;46.052;12.540;2023-10-13T03:01:34;18.10;99.90
40932;DHT22;36257;46.052;12.540;2023-10-13T03:04:01;18.10;99.90
40932;DHT22;36257;46.052;12.540;2023-10-13T03:06:28;18.20;99.90
40932;DHT22;36257;46.052;12.540;2023-10-13T03:09:06;18.20;99.90
40932;DHT22;36257;46.052;12.540;2023-10-13T03:11:53;18.20;99.90
40932;DHT22;36257;46.052;12.540;2023-10-13T03:14:20;18.20;99.90
40932;DHT22;36257;46.052;12.540;2023-10-13T03:16:53;18.20;99.90
40932;DHT22;36257;46.052;12.540;2023-10-13T03:19:19;18.10;99.90
40932;DHT22;36257;46.052;12.540;2023-10-13T03:21:46;18.10;99.90
40932;DHT22;36257;46.052;12.540;2023-10-13T03:24:21;18.00;99.90
40932;DHT22;36257;46.052;12.540;2023-10-13T03:27:04;17.90;99.90
40932;DHT22;36257;46.052;12.540;2023-10-13T03:29:38;17.90;99.90
40932;DHT22;36257;46.052;12.540;2023-10-13T03:32:15;17.90;99.90
40932;DHT22;36257;46.052;12.540;2023-10-13T03:34:42;17.90;99.90
40932;DHT22;36257;46.052;12.540;2023-10-13T03:37:20;17.90;99.90
40932;DHT22;36257;46.052;12.540;2023-10-13T03:40:10;17.90;99.90
40932;DHT22;36257;46.052;12.540;2023-10-13T03:42:49;17.90;99.90
40932;DHT22;36257;46.052;12.540;2023-10-13T03:45:35;17.90;99.90
40932;DHT22;36257;46.052;12.540;2023-10-13T03:48:12;17.90;99.90
40932;DHT22;36257;46.052;12.540;2023-10-13T03:50:50;17.80;99.90
40932;DHT22;36257;46.052;12.540;2023-10-13T03:53:41;17.80;99.90
40932;DHT22;36257;46.052;12.540;2023-10-13T03:56:26;17.80;99.90
40932;DHT22;36257;46.052;12.540;2023-10-13T03:58:57;17.70;99.90
40932;DHT22;36257;46.052;12.540;2023-10-13T04:01:38;17.60;99.90
40932;DHT22;36257;46.052;12.540;2023-10-13T04:04:23;17.60;99.90
40932;DHT22;36257;46.052;12.540;2023-10-13T04:07:07;17.70;99.90
40932;DHT22;36257;46.052;12.540;2023-10-13T04:09:35;17.70;99.90
40932;DHT22;36257;46.052;12.540;2023-10-13T04:12:13;17.70;99.90
40932;DHT22;36257;46.052;12.540;2023-10-13T04:14:43;17.70;99.90
40932;DHT22;36257;46.052;12.540;2023-10-13T04:17:28;17.80;99.90
40932;DHT22;36257;46.052;12.540;2023-10-13T04:19:57;17.70;99.90
40932;DHT22;36257;46.052;12.540;2023-10-13T04:22:36;17.80;99.90
40932;DHT22;36257;46.052;12.540;2023-10-13T04:25:28;17.70;99.90
40932;DHT22;36257;46.052;12.540;2023-10-13T04:28:14;17.80;99.90
40932;DHT22;36257;46.052;12.540;2023-10-13T04:30:46;17.70;99.90
40932;DHT22;36257;46.052;12.540;2023-10-13T04:33:25;17.70;99.90
40932;DHT22;36257;46.052;12.540;2023-10-13T04:36:10;17.70;99.90
40932;DHT22;36257;46.052;12.540;2023-10-13T04:38:49;17.80;99.90
40932;DHT22;36257;46.052;12.540;2023-10-13T04:41:40;17.80;99.90
40932;DHT22;36257;46.052;12.540;2023-10-13T04:44:22;17.80;99.90
40932;DHT22;36257;46.052;12.540;2023-10-13T04:47:06;17.70;99.90
40932;DHT22;36257;46.052;12.540;2023-10-13T04:49:40;17.70;99.90
40932;DHT22;36257;46.052;12.540;2023-10-13T04:52:11;17.70;99.90
40932;DHT22;36257;46.052;12.540;2023-10-13T04:54:38;17.70;99.90
40932;DHT22;36257;46.052;12.540;2023-10-13T04:57:30;17.70;99.90
40932;DHT22;36257;46.052;12.540;2023-10-13T05:00:12;17.70;99.90
40932;DHT22;36257;46.052;12.540;2023-10-13T05:02:38;17.80;99.90
40932;DHT22;36257;46.052;12.540;2023-10-13T05:05:11;17.80;99.90
40932;DHT22;36257;46.052;12.540;2023-10-13T05:07:44;17.70;99.90
40932;DHT22;36257;46.052;12.540;2023-10-13T05:10:29;17.70;99.90
40932;DHT22;36257;46.052;12.540;2023-10-13T05:13:14;17.70;99.90
40932;DHT22;36257;46.052;12.540;2023-10-13T05:15:58;17.70;99.90
40932;DHT22;36257;46.052;12.540;2023-10-13T05:18:42;17.70;99.90
40932;DHT22;36257;46.052;12.540;2023-10-13T05:21:27;17.70;99.90
40932;DHT22;36257;46.052;12.540;2023-10-13T05:24:11;17.70;99.90
40932;DHT22;36257;46.052;12.540;2023-10-13T05:27:13;17.60;99.90
40932;DHT22;36257;46.052;12.540;2023-10-13T05:29:57;17.60;99.90
40932;DHT22;36257;46.052;12.540;2023-10-13T05:32:42;17.50;99.90
40932;DHT22;36257;46.052;12.540;2023-10-13T05:35:26;17.50;99.90
40932;DHT22;36257;46.052;12.540;2023-10-13T05:38:10;17.40;99.90
40932;DHT22;36257;46.052;12.540;2023-10-13T05:40:57;17.40;99.90
40932;DHT22;36257;46.052;12.540;2023-10-13T05:43:42;17.30;99.90
40932;DHT22;36257;46.052;12.540;2023-10-13T05:46:26;17.30;99.90
40932;DHT22;36257;46.052;12.540;2023-10-13T05:48:53;17.30;99.90
40932;DHT22;36257;46.052;12.540;2023-10-13T05:51:28;17.30;99.90
40932;DHT22;36257;46.052;12.540;2023-10-13T05:54:04;17.30;99.90
40932;DHT22;36257;46.052;12.540;2023-10-13T05:59:29;17.20;99.90
40932;DHT22;36257;46.052;12.540;2023-10-13T06:02:19;17.20;99.90
40932;DHT22;36257;46.052;12.540;2023-10-13T06:05:11;17.20;99.90
40932;DHT22;36257;46.052;12.540;2023-10-13T06:07:56;17.40;99.90
40932;DHT22;36257;46.052;12.540;2023-10-13T06:10:41;17.50;99.90
40932;DHT22;36257;46.052;12.540;2023-10-13T06:13:26;17.50;99.90
40932;DHT22;36257;46.052;12.540;2023-10-13T06:16:13;17.50;99.90
40932;DHT22;36257;46.052;12.540;2023-10-13T06:18:57;17.60;99.90
40932;DHT22;36257;46.052;12.540;2023-10-13T06:21:42;17.70;99.90
40932;DHT22;36257;46.052;12.540;2023-10-13T06:24:27;17.60;99.90
40932;DHT22;36257;46.052;12.540;2023-10-13T06:27:11;17.60;99.90
40932;DHT22;36257;46.052;12.540;2023-10-13T06:29:55;17.60;99.90
40932;DHT22;36257;46.052;12.540;2023-10-13T06:32:22;17.60;99.90
40932;DHT22;36257;46.052;12.540;2023-10-13T06:34:55;17.60;99.90
40932;DHT22;36257;46.052;12.540;2023-10-13T06:37:25;17.60;99.90
40932;DHT22;36257;46.052;12.540;2023-10-13T06:40:02;17.60;99.90
40932;DHT22;36257;46.052;12.540;2023-10-13T06:42:48;17.70;99.90
40932;DHT22;36257;46.052;12.540;2023-10-13T06:45:14;17.80;99.90
40932;DHT22;36257;46.052;12.540;2023-10-13T06:47:42;17.90;99.90
40932;DHT22;36257;46.052;12.540;2023-10-13T06:50:15;17.90;99.90
40932;DHT22;36257;46.052;12.540;2023-10-13T06:52:47;18.00;99.90
40932;DHT22;36257;46.052;12.540;2023-10-13T06:55:13;18.10;99.90
40932;DHT22;36257;46.052;12.540;2023-10-13T06:57:46;18.20;99.90
40932;DHT22;36257;46.052;12.540;2023-10-13T07:00:12;18.20;99.90
40932;DHT22;36257;46.052;12.540;2023-10-13T07:02:57;18.30;99.90
40932;DHT22;36257;46.052;12.540;2023-10-13T07:05:36;18.40;99.90
40932;DHT22;36257;46.052;12.540;2023-10-13T07:08:06;18.40;99.90
40932;DHT22;36257;46.052;12.540;2023-10-13T07:10:32;18.40;99.90
40932;DHT22;36257;46.052;12.540;2023-10-13T07:13:10;18.50;99.90
40932;DHT22;36257;46.052;12.540;2023-10-13T07:15:36;18.50;99.90
40932;DHT22;36257;46.052;12.540;2023-10-13T07:18:16;18.50;99.90
40932;DHT22;36257;46.052;12.540;2023-10-13T07:20:48;18.70;99.90
40932;DHT22;36257;46.052;12.540;2023-10-13T07:23:14;18.80;99.90
40932;DHT22;36257;46.052;12.540;2023-10-13T07:25:52;18.90;99.90
40932;DHT22;36257;46.052;12.540;2023-10-13T07:28:19;19.00;99.90
40932;DHT22;36257;46.052;12.540;2023-10-13T07:30:44;19.20;99.90
40932;DHT22;36257;46.052;12.540;2023-10-13T07:33:19;19.30;99.90
40932;DHT22;36257;46.052;12.540;2023-10-13T07:35:59;19.50;99.90
40932;DHT22;36257;46.052;12.540;2023-10-13T07:38:25;19.70;99.90
40932;DHT22;36257;46.052;12.540;2023-10-13T07:40:52;20.00;99.90
40932;DHT22;36257;46.052;12.540;2023-10-13T07:43:17;20.20;99.90
40932;DHT22;36257;46.052;12.540;2023-10-13T07:45:49;20.40;99.90
40932;DHT22;36257;46.052;12.540;2023-10-13T07:48:24;20.60;99.90
40932;DHT22;36257;46.052;12.540;2023-10-13T07:53:29;21.00;99.90
40932;DHT22;36257;46.052;12.540;2023-10-13T07:56:00;21.10;99.90
40932;DHT22;36257;46.052;12.540;2023-10-13T07:58:31;21.30;99.90
40932;DHT22;36257;46.052;12.540;2023-10-13T08:00:57;21.50;99.90
40932;DHT22;36257;46.052;12.540;2023-10-13T08:03:33;21.70;99.20
40932;DHT22;36257;46.052;12.540;2023-10-13T08:06:16;21.80;99.20
40932;DHT22;36257;46.052;12.540;2023-10-13T08:08:42;21.90;98.60
40932;DHT22;36257;46.052;12.540;2023-10-13T08:11:13;22.00;98.20
40932;DHT22;36257;46.052;12.540;2023-10-13T08:13:51;22.20;98.10
40932;DHT22;36257;46.052;12.540;2023-10-13T08:16:22;22.50;97.80
40932;DHT22;36257;46.052;12.540;2023-10-13T08:18:52;22.60;96.60
40932;DHT22;36257;46.052;12.540;2023-10-13T08:21:18;22.80;96.10
40932;DHT22;36257;46.052;12.540;2023-10-13T08:23:51;23.00;95.40
40932;DHT22;36257;46.052;12.540;2023-10-13T08:26:23;23.10;95.00
40932;DHT22;36257;46.052;12.540;2023-10-13T08:29:04;23.20;94.60
40932;DHT22;36257;46.052;12.540;2023-10-13T08:31:50;23.40;94.90
40932;DHT22;36257;46.052;12.540;2023-10-13T08:34:34;23.60;92.60
40932;DHT22;36257;46.052;12.540;2023-10-13T08:37:09;23.70;92.00
40932;DHT22;36257;46.052;12.540;2023-10-13T08:39:48;23.70;93.20
40932;DHT22;36257;46.052;12.540;2023-10-13T08:42:38;23.90;92.50
40932;DHT22;36257;46.052;12.540;2023-10-13T08:45:08;24.00;92.80
40932;DHT22;36257;46.052;12.540;2023-10-13T08:47:58;24.10;92.90
40932;DHT22;36257;46.052;12.540;2023-10-13T08:50:37;24.10;91.80
40932;DHT22;36257;46.052;12.540;2023-10-13T08:56:07;24.30;90.70
40932;DHT22;36257;46.052;12.540;2023-10-13T08:58:44;24.40;90.10
40932;DHT22;36257;46.052;12.540;2023-10-13T09:01:30;24.50;90.20
40932;DHT22;36257;46.052;12.540;2023-10-13T09:04:15;24.70;90.00
40932;DHT22;36257;46.052;12.540;2023-10-13T09:06:55;24.90;89.50
40932;DHT22;36257;46.052;12.540;2023-10-13T09:09:44;25.00;90.00
40932;DHT22;36257;46.052;12.540;2023-10-13T09:12:19;25.00;89.00
40932;DHT22;36257;46.052;12.540;2023-10-13T09:14:53;24.80;88.60
40932;DHT22;36257;46.052;12.540;2023-10-13T09:17:31;24.80;89.10
40932;DHT22;36257;46.052;12.540;2023-10-13T09:20:01;25.10;89.30
40932;DHT22;36257;46.052;12.540;2023-10-13T09:22:46;25.20;87.50
40932;DHT22;36257;46.052;12.540;2023-10-13T09:25:31;25.20;87.70
40932;DHT22;36257;46.052;12.540;2023-10-13T09:28:14;25.20;87.80
40932;DHT22;36257;46.052;12.540;2023-10-13T09:30:50;25.20;88.90
40932;DHT22;36257;46.052;12.540;2023-10-13T09:33:22;25.20;87.80
40932;DHT22;36257;46.052;12.540;2023-10-13T09:35:58;25.00;87.40
40932;DHT22;36257;46.052;12.540;2023-10-13T09:38:27;25.00;87.20
40932;DHT22;36257;46.052;12.540;2023-10-13T09:40:53;25.00;87.80
40932;DHT22;36257;46.052;12.540;2023-10-13T09:43:26;25.10;88.90
40932;DHT22;36257;46.052;12.540;2023-10-13T09:45:59;25.10;87.30
40932;DHT22;36257;46.052;12.540;2023-10-13T09:48:38;25.10;88.00
40932;DHT22;36257;46.052;12.540;2023-10-13T09:51:15;25.20;88.40
40932;DHT22;36257;46.052;12.540;2023-10-13T09:53:55;25.10;87.60
40932;DHT22;36257;46.052;12.540;2023-10-13T09:56:35;25.10;88.20
40932;DHT22;36257;46.052;12.540;2023-10-13T09:59:19;25.20;88.30
40932;DHT22;36257;46.052;12.540;2023-10-13T10:01:49;25.20;86.80
40932;DHT22;36257;46.052;12.540;2023-10-13T10:04:18;25.30;87.30
40932;DHT22;36257;46.052;12.540;2023-10-13T10:06:58;25.20;87.40
40932;DHT22;36257;46.052;12.540;2023-10-13T10:09:32;25.30;86.20
40932;DHT22;36257;46.052;12.540;2023-10-13T10:17:41;24.90;88.20
40932;DHT22;36257;46.052;12.540;2023-10-13T10:20:08;25.10;87.20
40932;DHT22;36257;46.052;12.540;2023-10-13T10:22:58;25.10;88.30
40932;DHT22;36257;46.052;12.540;2023-10-13T10:25:36;25.20;86.40
40932;DHT22;36257;46.052;12.540;2023-10-13T10:28:04;25.30;86.10
40932;DHT22;36257;46.052;12.540;2023-10-13T10:30:33;25.30;87.40
40932;DHT22;36257;46.052;12.540;2023-10-13T10:33:00;25.30;87.10
40932;DHT22;36257;46.052;12.540;2023-10-13T10:35:29;25.20;87.20
40932;DHT22;36257;46.052;12.540;2023-10-13T10:38:17;25.30;87.70
40932;DHT22;36257;46.052;12.540;2023-10-13T10:41:01;25.30;88.20
40932;DHT22;36257;46.052;12.540;2023-10-13T10:43:29;25.40;87.70
40932;DHT22;36257;46.052;12.540;2023-10-13T10:48:40;25.00;87.10
40932;DHT22;36257;46.052;12.540;2023-10-13T10:51:13;24.90;87.40
40932;DHT22;36257;46.052;12.540;2023-10-13T10:53:52;24.80;88.50
40932;DHT22;36257;46.052;12.540;2023-10-13T10:56:23;24.80;88.30
40932;DHT22;36257;46.052;12.540;2023-10-13T10:58:54;24.80;86.80
40932;DHT22;36257;46.052;12.540;2023-10-13T11:01:23;24.70;87.60
40932;DHT22;36257;46.052;12.540;2023-10-13T11:04:03;24.70;88.60
40932;DHT22;36257;46.052;12.540;2023-10-13T11:06:56;24.80;86.70
40932;DHT22;36257;46.052;12.540;2023-10-13T11:09:31;24.60;87.30
40932;DHT22;36257;46.052;12.540;2023-10-13T11:12:10;24.50;88.60
40932;DHT22;36257;46.052;12.540;2023-10-13T11:15:00;24.60;88.40
40932;DHT22;36257;46.052;12.540;2023-10-13T11:17:26;24.60;88.00
40932;DHT22;36257;46.052;12.540;2023-10-13T11:20:16;24.50;87.60
40932;DHT22;36257;46.052;12.540;2023-10-13T11:22:49;24.50;89.60
40932;DHT22;36257;46.052;12.540;2023-10-13T11:25:30;24.50;88.30
40932;DHT22;36257;46.052;12.540;2023-10-13T11:31:35;24.60;88.40
40932;DHT22;36257;46.052;12.540;2023-10-13T11:34:03;24.60;88.10
40932;DHT22;36257;46.052;12.540;2023-10-13T11:36:31;24.70;88.20
40932;DHT22;36257;46.052;12.540;2023-10-13T11:38:58;24.70;88.30
40932;DHT22;36257;46.052;12.540;2023-10-13T11:41:24;24.70;88.80
40932;DHT22;36257;46.052;12.540;2023-10-13T11:43:58;24.80;88.30
40932;DHT22;36257;46.052;12.540;2023-10-13T11:46:49;25.00;87.40
40932;DHT22;36257;46.052;12.540;2023-10-13T11:49:21;25.00;86.20
40932;DHT22;36257;46.052;12.540;2023-10-13T11:51:53;25.20;86.70
40932;DHT22;36257;46.052;12.540;2023-10-13T11:54:41;25.50;85.20
40932;DHT22;36257;46.052;12.540;2023-10-13T11:57:07;25.70;84.90
40932;DHT22;36257;46.052;12.540;2023-10-13T11:59:33;25.60;84.50
40932;DHT22;36257;46.052;12.540;2023-10-13T12:02:01;25.60;84.20
40932;DHT22;36257;46.052;12.540;2023-10-13T12:11:55;25.40;85.60
40932;DHT22;36257;46.052;12.540;2023-10-13T12:14:30;25.20;86.20
40932;DHT22;36257;46.052;12.540;2023-10-13T12:17:21;25.20;87.20
40932;DHT22;36257;46.052;12.540;2023-10-13T12:19:59;25.20;87.60
40932;DHT22;36257;46.052;12.540;2023-10-13T12:22:25;25.20;85.40
40932;DHT22;36257;46.052;12.540;2023-10-13T12:24:57;25.10;86.20
40932;DHT22;36257;46.052;12.540;2023-10-13T12:27:23;25.10;86.80
40932;DHT22;36257;46.052;12.540;2023-10-13T12:29:50;25.10;85.90
40932;DHT22;36257;46.052;12.540;2023-10-13T12:32:22;25.20;85.70
40932;DHT22;36257;46.052;12.540;2023-10-13T12:34:50;25.20;86.10
40932;DHT22;36257;46.052;12.540;2023-10-13T12:37:42;25.10;85.80
40932;DHT22;36257;46.052;12.540;2023-10-13T12:40:10;25.00;86.10
40932;DHT22;36257;46.052;12.540;2023-10-13T12:42:54;25.10;86.20
40932;DHT22;36257;46.052;12.540;2023-10-13T12:45:39;25.00;85.90
40932;DHT22;36257;46.052;12.540;2023-10-13T12:48:23;25.10;86.00
40932;DHT22;36257;46.052;12.540;2023-10-13T12:51:08;25.10;86.50
40932;DHT22;36257;46.052;12.540;2023-10-13T12:53:48;25.00;86.80
40932;DHT22;36257;46.052;12.540;2023-10-13T12:56:14;25.00;87.70
40932;DHT22;36257;46.052;12.540;2023-10-13T12:58:41;25.00;87.90
40932;DHT22;36257;46.052;12.540;2023-10-13T13:01:07;25.00;87.90
40932;DHT22;36257;46.052;12.540;2023-10-13T13:03:34;24.90;86.70
40932;DHT22;36257;46.052;12.540;2023-10-13T13:05:59;24.90;87.00
40932;DHT22;36257;46.052;12.540;2023-10-13T13:08:33;24.90;87.30
40932;DHT22;36257;46.052;12.540;2023-10-13T13:11:01;24.90;86.80
40932;DHT22;36257;46.052;12.540;2023-10-13T13:13:27;24.90;87.40
40932;DHT22;36257;46.052;12.540;2023-10-13T13:15:53;24.80;87.60
40932;DHT22;36257;46.052;12.540;2023-10-13T13:18:18;24.70;86.90
40932;DHT22;36257;46.052;12.540;2023-10-13T13:20:45;24.70;86.90
40932;DHT22;36257;46.052;12.540;2023-10-13T13:23:23;24.60;87.00
40932;DHT22;36257;46.052;12.540;2023-10-13T13:25:52;24.60;86.30
40932;DHT22;36257;46.052;12.540;2023-10-13T13:28:18;24.60;86.80
40932;DHT22;36257;46.052;12.540;2023-10-13T13:30:44;24.50;87.60
40932;DHT22;36257;46.052;12.540;2023-10-13T13:33:11;24.40;87.40
40932;DHT22;36257;46.052;12.540;2023-10-13T13:35:38;24.30;88.20
40932;DHT22;36257;46.052;12.540;2023-10-13T13:38:04;24.30;88.10
40932;DHT22;36257;46.052;12.540;2023-10-13T13:40:39;24.30;88.50
40932;DHT22;36257;46.052;12.540;2023-10-13T13:43:05;24.20;88.80
40932;DHT22;36257;46.052;12.540;2023-10-13T13:45:32;24.10;89.20
40932;DHT22;36257;46.052;12.540;2023-10-13T13:48:00;24.00;89.90
40932;DHT22;36257;46.052;12.540;2023-10-13T13:50:33;24.00;90.10
40932;DHT22;36257;46.052;12.540;2023-10-13T13:53:04;23.90;90.00
40932;DHT22;36257;46.052;12.540;2023-10-13T13:55:34;23.90;90.30
40932;DHT22;36257;46.052;12.540;2023-10-13T13:58:00;23.90;91.00
40932;DHT22;36257;46.052;12.540;2023-10-13T14:00:26;23.70;91.50
40932;DHT22;36257;46.052;12.540;2023-10-13T14:03:05;23.60;91.40
40932;DHT22;36257;46.052;12.540;2023-10-13T14:05:41;23.60;91.50
40932;DHT22;36257;46.052;12.540;2023-10-13T14:08:07;23.80;91.20
40932;DHT22;36257;46.052;12.540;2023-10-13T14:10:38;23.70;91.00
40932;DHT22;36257;46.052;12.540;2023-10-13T14:13:24;23.70;91.20
40932;DHT22;36257;46.052;12.540;2023-10-13T14:16:09;23.70;91.30
40932;DHT22;36257;46.052;12.540;2023-10-13T14:18:51;23.70;91.80
40932;DHT22;36257;46.052;12.540;2023-10-13T14:21:18;23.60;91.70
40932;DHT22;36257;46.052;12.540;2023-10-13T14:23:50;23.60;90.80
40932;DHT22;36257;46.052;12.540;2023-10-13T14:26:20;23.60;90.80
40932;DHT22;36257;46.052;12.540;2023-10-13T14:28:47;23.60;91.50
40932;DHT22;36257;46.052;12.540;2023-10-13T14:31:34;23.60;91.90
40932;DHT22;36257;46.052;12.540;2023-10-13T14:34:05;23.80;90.80
40932;DHT22;36257;46.052;12.540;2023-10-13T14:36:32;23.70;90.70
40932;DHT22;36257;46.052;12.540;2023-10-13T14:39:01;23.70;90.70
40932;DHT22;36257;46.052;12.540;2023-10-13T14:41:26;23.60;91.00
40932;DHT22;36257;46.052;12.540;2023-10-13T14:43:52;23.60;91.30
40932;DHT22;36257;46.052;12.540;2023-10-13T14:46:19;23.60;90.80
40932;DHT22;36257;46.052;12.540;2023-10-13T14:48:54;23.60;90.80
40932;DHT22;36257;46.052;12.540;2023-10-13T14:51:20;23.60;91.00
40932;DHT22;36257;46.052;12.540;2023-10-13T14:53:47;23.70;91.20
40932;DHT22;36257;46.052;12.540;2023-10-13T14:56:14;23.70;90.80
40932;DHT22;36257;46.052;12.540;2023-10-13T14:58:41;23.60;91.00
40932;DHT22;36257;46.052;12.540;2023-10-13T15:01:20;23.60;91.50
40932;DHT22;36257;46.052;12.540;2023-10-13T15:03:48;23.60;91.10
40932;DHT22;36257;46.052;12.540;2023-10-13T15:06:21;23.60;91.40
40932;DHT22;36257;46.052;12.540;2023-10-13T15:08:51;23.60;91.30
40932;DHT22;36257;46.052;12.540;2023-10-13T15:11:20;23.70;91.00
40932;DHT22;36257;46.052;12.540;2023-10-13T15:13:46;23.60;91.40
40932;DHT22;36257;46.052;12.540;2023-10-13T15:16:18;23.60;91.50
40932;DHT22;36257;46.052;12.540;2023-10-13T15:18:49;23.70;91.20
40932;DHT22;36257;46.052;12.540;2023-10-13T15:21:25;23.60;92.00
40932;DHT22;36257;46.052;12.540;2023-10-13T15:24:00;23.50;92.20
40932;DHT22;36257;46.052;12.540;2023-10-13T15:26:32;23.40;92.60
40932;DHT22;36257;46.052;12.540;2023-10-13T15:29:06;23.50;92.80
40932;DHT22;36257;46.052;12.540;2023-10-13T15:31:35;23.40;93.20
40932;DHT22;36257;46.052;12.540;2023-10-13T15:34:02;23.40;93.90
40932;DHT22;36257;46.052;12.540;2023-10-13T15:36:55;23.30;94.70
40932;DHT22;36257;46.052;12.540;2023-10-13T15:39:21;23.30;95.30
40932;DHT22;36257;46.052;12.540;2023-10-13T15:41:54;23.30;95.80
40932;DHT22;36257;46.052;12.540;2023-10-13T15:44:23;23.20;96.10
40932;DHT22;36257;46.052;12.540;2023-10-13T15:46:56;23.10;96.50
40932;DHT22;36257;46.052;12.540;2023-10-13T15:49:22;23.10;97.20
40932;DHT22;36257;46.052;12.540;2023-10-13T15:51:48;23.10;97.20
40932;DHT22;36257;46.052;12.540;2023-10-13T15:54:18;23.00;97.30
40932;DHT22;36257;46.052;12.540;2023-10-13T15:56:47;22.90;97.40
40932;DHT22;36257;46.052;12.540;2023-10-13T15:59:22;22.80;97.70
40932;DHT22;36257;46.052;12.540;2023-10-13T16:01:50;22.80;97.70
40932;DHT22;36257;46.052;12.540;2023-10-13T16:04:22;22.80;97.50
40932;DHT22;36257;46.052;12.540;2023-10-13T16:06:48;22.80;97.50
40932;DHT22;36257;46.052;12.540;2023-10-13T16:09:19;22.80;97.80
40932;DHT22;36257;46.052;12.540;2023-10-13T16:11:52;22.70;98.30
40932;DHT22;36257;46.052;12.540;2023-10-13T16:14:18;22.70;98.40
40932;DHT22;36257;46.052;12.540;2023-10-13T16:16:49;22.60;98.60
40932;DHT22;36257;46.052;12.540;2023-10-13T16:19:15;22.50;98.80
40932;DHT22;36257;46.052;12.540;2023-10-13T16:21:47;22.40;98.80
40932;DHT22;36257;46.052;12.540;2023-10-13T16:24:13;22.40;99.00
40932;DHT22;36257;46.052;12.540;2023-10-13T16:26:46;22.40;99.20
40932;DHT22;36257;46.052;12.540;2023-10-13T16:29:15;22.30;99.70
40932;DHT22;36257;46.052;12.540;2023-10-13T16:31:41;22.20;99.90
40932;DHT22;36257;46.052;12.540;2023-10-13T16:34:14;22.20;99.80
40932;DHT22;36257;46.052;12.540;2023-10-13T16:36:46;22.20;99.70
40932;DHT22;36257;46.052;12.540;2023-10-13T16:39:14;22.10;99.70
40932;DHT22;36257;46.052;12.540;2023-10-13T16:41:48;22.00;99.80
40932;DHT22;36257;46.052;12.540;2023-10-13T16:44:17;22.00;99.50
40932;DHT22;36257;46.052;12.540;2023-10-13T16:46:42;22.00;99.60
40932;DHT22;36257;46.052;12.540;2023-10-13T16:49:08;22.00;99.50
40932;DHT22;36257;46.052;12.540;2023-10-13T16:51:36;21.90;99.80
40932;DHT22;36257;46.052;12.540;2023-10-13T16:54:02;21.80;99.90
40932;DHT22;36257;46.052;12.540;2023-10-13T16:56:28;21.80;99.90
40932;DHT22;36257;46.052;12.540;2023-10-13T16:58:54;21.70;99.90
40932;DHT22;36257;46.052;12.540;2023-10-13T17:01:20;21.60;99.90
40932;DHT22;36257;46.052;12.540;2023-10-13T17:03:47;21.50;99.90
40932;DHT22;36257;46.052;12.540;2023-10-13T17:06:15;21.50;99.90
40932;DHT22;36257;46.052;12.540;2023-10-13T17:08:41;21.50;99.90
40932;DHT22;36257;46.052;12.540;2023-10-13T17:11:15;21.60;99.90
40932;DHT22;36257;46.052;12.540;2023-10-13T17:13:45;21.60;99.90
40932;DHT22;36257;46.052;12.540;2023-10-13T17:18:41;21.60;99.90
40932;DHT22;36257;46.052;12.540;2023-10-13T17:21:23;21.60;99.90
40932;DHT22;36257;46.052;12.540;2023-10-13T17:23:54;21.60;99.90
40932;DHT22;36257;46.052;12.540;2023-10-13T17:26:21;21.60;99.90
40932;DHT22;36257;46.052;12.540;2023-10-13T17:28:49;21.50;99.90
40932;DHT22;36257;46.052;12.540;2023-10-13T17:31:15;21.50;99.90
40932;DHT22;36257;46.052;12.540;2023-10-13T17:33:41;21.40;99.90
40932;DHT22;36257;46.052;12.540;2023-10-13T17:36:08;21.40;99.90
40932;DHT22;36257;46.052;12.540;2023-10-13T17:38:35;21.30;99.90
40932;DHT22;36257;46.052;12.540;2023-10-13T17:41:02;21.20;99.90
40932;DHT22;36257;46.052;12.540;2023-10-13T17:43:30;21.20;99.90
40932;DHT22;36257;46.052;12.540;2023-10-13T17:45:57;21.20;99.90
40932;DHT22;36257;46.052;12.540;2023-10-13T17:48:22;21.20;99.90
40932;DHT22;36257;46.052;12.540;2023-10-13T17:50:48;21.20;99.90
40932;DHT22;36257;46.052;12.540;2023-10-13T17:53:14;21.20;99.90
40932;DHT22;36257;46.052;12.540;2023-10-13T17:55:39;21.10;99.90
40932;DHT22;36257;46.052;12.540;2023-10-13T17:58:05;21.10;99.90
40932;DHT22;36257;46.052;12.540;2023-10-13T18:00:32;21.00;99.90
40932;DHT22;36257;46.052;12.540;2023-10-13T18:02:58;21.00;99.90
40932;DHT22;36257;46.052;12.540;2023-10-13T18:05:29;21.10;99.90
40932;DHT22;36257;46.052;12.540;2023-10-13T18:08:01;21.10;99.90
40932;DHT22;36257;46.052;12.540;2023-10-13T18:10:27;21.10;99.90
40932;DHT22;36257;46.052;12.540;2023-10-13T18:12:53;21.00;99.90
40932;DHT22;36257;46.052;12.540;2023-10-13T18:15:18;20.90;99.90